createdAt,value
2022-10-09T00:01:17.464Z,6.60
2022-10-09T00:06:32.221Z,6.43
2022-10-09T00:11:35.440Z,6.30
2022-10-09T00:16:38.076Z,5.87
2022-10-09T00:21:40.673Z,5.83
2022-10-09T00:26:43.159Z,5.43
2022-10-09T00:31:45.664Z,6.00
2022-10-09T00:36:48.132Z,6.90
2022-10-09T00:41:50.573Z,5.30
2022-10-09T00:46:53.136Z,5.00
2022-10-09T00:51:58.525Z,5.30
2022-10-09T00:57:01.409Z,7.53
2022-10-09T01:02:04.045Z,12.20
2022-10-09T01:07:22.414Z,13.87
2022-10-09T01:13:02.539Z,10.70
2022-10-09T01:18:13.150Z,9.50
2022-10-09T01:23:48.268Z,7.20
2022-10-09T01:28:59.476Z,6.93
2022-10-09T01:34:02.811Z,6.57
2022-10-09T01:39:08.990Z,6.93
2022-10-09T01:44:17.337Z,8.00
2022-10-09T01:49:49.529Z,7.17
2022-10-09T01:55:29.071Z,5.90
2022-10-09T02:00:36.912Z,5.53
2022-10-09T02:05:41.432Z,6.20
2022-10-09T02:10:47.179Z,10.67
2022-10-09T02:16:31.454Z,19.07
2022-10-09T02:21:54.414Z,11.77
2022-10-09T02:26:58.316Z,11.67
2022-10-09T02:32:00.702Z,13.77
2022-10-09T02:37:03.705Z,6.20
2022-10-09T02:42:06.175Z,6.70
2022-10-09T02:47:08.582Z,6.00
2022-10-09T02:52:11.015Z,6.53
2022-10-09T02:57:13.430Z,5.70
2022-10-09T03:02:15.929Z,6.10
2022-10-09T03:07:18.440Z,6.00
2022-10-09T03:12:22.188Z,7.70
2022-10-09T03:17:24.540Z,12.07
2022-10-09T03:22:26.909Z,10.63
2022-10-09T03:27:30.961Z,17.90
2022-10-09T03:32:33.343Z,12.47
2022-10-09T03:37:35.888Z,9.67
2022-10-09T03:42:38.279Z,7.33
2022-10-09T03:47:40.854Z,5.73
2022-10-09T03:52:43.407Z,6.60
2022-10-09T03:57:45.804Z,5.63
2022-10-09T04:02:48.566Z,5.27
2022-10-09T04:07:51.154Z,11.77
2022-10-09T04:12:53.589Z,7.93
2022-10-09T04:17:56.027Z,6.00
2022-10-09T04:22:58.432Z,7.47
2022-10-09T04:28:00.917Z,7.97
2022-10-09T04:33:03.502Z,11.57
2022-10-09T04:38:05.983Z,6.53
2022-10-09T04:43:08.495Z,5.53
2022-10-09T04:48:10.858Z,6.07
2022-10-09T04:53:13.295Z,5.43
2022-10-09T04:58:15.733Z,5.63
2022-10-09T05:03:18.745Z,10.73
2022-10-09T05:08:21.224Z,5.80
2022-10-09T05:13:23.783Z,5.07
2022-10-09T05:18:26.169Z,6.70
2022-10-09T05:23:28.797Z,10.30
2022-10-09T05:28:31.344Z,11.67
2022-10-09T05:33:34.643Z,10.93
2022-10-09T05:38:37.168Z,9.30
2022-10-09T05:43:42.095Z,12.30
2022-10-09T05:48:47.340Z,8.33
2022-10-09T05:53:50.640Z,8.10
2022-10-09T05:58:57.170Z,10.17
2022-10-09T06:04:00.645Z,10.07
2022-10-09T06:09:03.287Z,8.20
2022-10-09T06:14:12.468Z,9.77
2022-10-09T06:19:21.683Z,8.23
2022-10-09T06:24:29.183Z,6.83
2022-10-09T06:29:31.981Z,6.53
2022-10-09T06:34:59.264Z,8.13
2022-10-09T06:40:11.664Z,14.20
2022-10-09T06:45:14.171Z,10.10
2022-10-09T06:50:17.042Z,7.03
2022-10-09T06:55:19.602Z,7.80
2022-10-09T07:00:21.949Z,5.63
2022-10-09T07:05:24.305Z,5.37
2022-10-09T07:10:27.815Z,6.23
2022-10-09T07:15:30.239Z,5.13
2022-10-09T07:20:36.386Z,4.97
2022-10-09T07:25:40.188Z,5.60
2022-10-09T07:30:42.550Z,4.67
2022-10-09T07:36:00.140Z,6.33
2022-10-09T07:41:05.130Z,7.50
2022-10-09T07:46:13.524Z,4.93
2022-10-09T07:51:18.791Z,5.80
2022-10-09T07:56:23.403Z,5.90
2022-10-09T08:01:28.206Z,4.57
2022-10-09T08:06:31.561Z,5.33
2022-10-09T08:11:35.297Z,5.07
2022-10-09T08:16:40.651Z,4.90
2022-10-09T08:21:43.051Z,4.90
2022-10-09T08:26:45.438Z,6.13
2022-10-09T08:31:47.785Z,5.17
2022-10-09T08:36:50.308Z,4.60
2022-10-09T08:41:55.030Z,4.10
2022-10-09T08:47:05.212Z,5.00
2022-10-09T08:52:38.913Z,5.33
2022-10-09T08:57:41.521Z,5.60
2022-10-09T09:02:54.144Z,8.97
2022-10-09T09:08:17.929Z,4.63
2022-10-09T09:13:30.537Z,4.00
2022-10-09T09:18:42.712Z,3.53
2022-10-09T09:23:48.748Z,5.67
2022-10-09T09:28:56.754Z,3.13
2022-10-09T09:34:28.202Z,3.10
2022-10-09T09:45:03.016Z,3.30
2022-10-09T09:50:06.299Z,4.93
2022-10-09T09:55:24.913Z,3.03
2022-10-09T10:00:27.835Z,4.03
2022-10-09T10:05:36.511Z,3.40
2022-10-09T10:10:45.426Z,26.93
2022-10-09T10:15:57.228Z,4.97
2022-10-09T10:21:16.305Z,3.70
2022-10-09T10:26:24.800Z,2.10
2022-10-09T10:32:11.523Z,3.20
2022-10-09T10:37:14.081Z,1.40
2022-10-09T10:42:31.641Z,1.30
2022-10-09T10:47:39.888Z,1.43
2022-10-09T10:53:11.426Z,4.13
2022-10-09T10:58:13.773Z,4.10
2022-10-09T11:03:16.099Z,4.20
2022-10-09T11:08:45.169Z,5.10
2022-10-09T11:14:20.042Z,1.20
2022-10-09T11:19:41.716Z,3.87
2022-10-09T11:24:49.928Z,2.80
2022-10-09T11:30:13.419Z,3.63
2022-10-09T11:35:20.903Z,1.93
2022-10-09T11:40:29.210Z,2.80
2022-10-09T11:45:46.959Z,3.43
2022-10-09T11:51:11.854Z,1.73
2022-10-09T11:56:28.752Z,1.70
2022-10-09T12:01:42.945Z,2.53
2022-10-09T12:06:47.910Z,4.63
2022-10-09T12:12:07.250Z,1.80
2022-10-09T12:17:21.840Z,1.63
2022-10-09T12:22:30.211Z,2.10
2022-10-09T12:27:36.277Z,1.43
2022-10-09T12:32:41.693Z,2.50
2022-10-09T12:37:46.958Z,68.10
2022-10-09T12:42:52.446Z,3.20
2022-10-09T12:47:55.941Z,2.10
2022-10-09T12:53:00.598Z,2.33
2022-10-09T12:58:07.652Z,1.07
2022-10-09T13:03:37.112Z,3.50
2022-10-09T13:08:40.403Z,3.07
2022-10-09T13:13:42.906Z,2.73
2022-10-09T13:19:02.978Z,3.10
2022-10-09T13:24:13.487Z,1.30
2022-10-09T13:29:15.931Z,1.53
2022-10-09T13:34:18.928Z,1.10
2022-10-09T13:39:21.211Z,4.57
2022-10-09T13:44:23.867Z,2.60
2022-10-09T13:49:26.215Z,4.33
2022-10-09T13:54:28.630Z,6.00
2022-10-09T13:59:32.088Z,1.70
2022-10-09T14:04:34.563Z,1.97
2022-10-09T14:09:36.891Z,4.40
2022-10-09T14:14:39.363Z,1.60
2022-10-09T14:19:41.641Z,2.87
2022-10-09T14:24:44.057Z,7.10
2022-10-09T14:29:48.228Z,5.40
2022-10-09T14:34:50.493Z,7.37
2022-10-09T14:39:54.286Z,4.20
2022-10-09T14:44:56.604Z,8.30
2022-10-09T14:49:58.930Z,9.33
2022-10-09T14:55:01.214Z,4.37
2022-10-09T15:00:05.648Z,4.00
2022-10-09T15:05:08.773Z,8.73
2022-10-09T15:10:12.249Z,3.40
2022-10-09T15:15:14.590Z,12.53
2022-10-09T15:20:16.978Z,4.90
2022-10-09T15:25:19.269Z,11.60
2022-10-09T15:30:21.563Z,8.40
2022-10-09T15:35:23.869Z,10.07
2022-10-09T15:40:26.247Z,14.20
2022-10-09T15:45:28.588Z,10.90
2022-10-09T15:50:31.164Z,5.67
2022-10-09T15:55:37.465Z,51.13
2022-10-09T16:00:42.827Z,27.23
2022-10-09T16:05:48.886Z,23.77
2022-10-09T16:10:55.446Z,34.07
2022-10-09T16:15:59.780Z,25.37
2022-10-09T16:21:07.802Z,29.87
2022-10-09T16:26:11.953Z,27.77
2022-10-09T16:31:26.105Z,36.23
2022-10-09T16:36:28.657Z,61.53
2022-10-09T16:41:30.985Z,57.63
2022-10-09T16:51:41.830Z,52.87
2022-10-09T16:56:44.228Z,49.43
2022-10-09T17:01:47.754Z,50.27
2022-10-09T17:06:51.246Z,37.37
2022-10-09T17:11:53.536Z,41.83
2022-10-09T17:16:55.893Z,76.93
2022-10-09T17:21:59.270Z,51.73
2022-10-09T17:27:01.566Z,50.80
2022-10-09T17:32:08.104Z,47.50
2022-10-09T17:37:10.625Z,35.47
2022-10-09T17:42:13.018Z,32.60
2022-10-09T17:47:15.358Z,36.57
2022-10-09T17:52:17.754Z,40.67
2022-10-09T17:57:20.183Z,57.07
2022-10-09T18:02:22.501Z,78.57
2022-10-09T18:07:25.272Z,85.93
2022-10-09T18:12:27.644Z,80.60
2022-10-09T18:17:33.239Z,72.47
2022-10-09T18:22:37.039Z,92.57
2022-10-09T18:27:39.376Z,70.67
2022-10-09T18:32:41.673Z,99.00
2022-10-09T18:37:43.992Z,80.67
2022-10-09T18:42:46.372Z,75.90
2022-10-09T18:47:48.808Z,67.97
2022-10-09T18:52:51.696Z,65.93
2022-10-09T18:57:55.211Z,70.80
2022-10-09T19:02:57.550Z,52.33
2022-10-09T19:07:59.878Z,44.07
2022-10-09T19:13:02.399Z,74.37
2022-10-09T19:18:05.000Z,55.47
2022-10-09T19:23:08.497Z,57.80
2022-10-09T19:28:10.864Z,51.90
2022-10-09T19:33:13.773Z,58.03
2022-10-09T19:38:16.908Z,62.57
2022-10-09T19:43:20.259Z,60.67
2022-10-09T19:48:24.405Z,60.53
2022-10-09T19:53:26.748Z,62.80
2022-10-09T19:58:30.228Z,56.87
2022-10-09T20:03:32.616Z,51.17
2022-10-09T20:08:36.483Z,52.97
2022-10-09T20:13:40.280Z,49.07
2022-10-09T20:18:47.199Z,49.87
2022-10-09T20:23:49.789Z,46.67
2022-10-09T20:28:55.911Z,48.63
2022-10-09T20:33:58.972Z,54.97
2022-10-09T20:39:08.260Z,63.83
2022-10-09T20:44:11.997Z,59.30
2022-10-09T20:49:14.991Z,54.43
2022-10-09T20:54:20.202Z,48.83
2022-10-09T20:59:22.597Z,61.23
2022-10-09T21:04:24.917Z,62.57
2022-10-09T21:09:32.293Z,46.17
2022-10-09T21:14:36.816Z,43.13
2022-10-09T21:19:39.092Z,50.77
2022-10-09T21:24:41.500Z,47.93
2022-10-09T21:29:43.821Z,42.07
2022-10-09T21:34:46.200Z,39.10
2022-10-09T21:39:48.557Z,39.17
2022-10-09T21:44:53.725Z,34.97
2022-10-09T21:49:56.013Z,35.37
2022-10-09T21:54:58.285Z,37.03
2022-10-09T22:00:00.593Z,35.77
2022-10-09T22:05:03.209Z,36.97
2022-10-09T22:10:07.133Z,33.93
2022-10-09T22:15:09.866Z,32.73
2022-10-09T22:20:13.137Z,32.37
2022-10-09T22:25:15.571Z,31.80
2022-10-09T22:30:17.947Z,33.43
2022-10-09T22:35:20.736Z,30.90
2022-10-09T22:40:23.121Z,29.07
2022-10-09T22:45:25.488Z,29.33
2022-10-09T22:50:27.722Z,27.47
2022-10-09T22:55:30.357Z,28.90
2022-10-09T23:00:35.398Z,27.87
2022-10-09T23:05:37.704Z,28.03
2022-10-09T23:10:40.099Z,30.63
2022-10-09T23:15:42.397Z,33.23
2022-10-09T23:20:44.684Z,32.20
2022-10-09T23:25:47.055Z,29.70
2022-10-09T23:30:49.404Z,34.00
2022-10-09T23:35:51.733Z,32.27
2022-10-09T23:40:58.711Z,30.83
2022-10-09T23:46:03.381Z,25.37
2022-10-09T23:51:06.597Z,23.63
2022-10-09T23:56:20.874Z,21.80
